Guthrie, OK

1:03 AM CDT on October 23, 2014 (GMT -0500)
Guthrie Municipal | Change Station
CLOSE
Current Station
Airport
Location: Guthrie,
Elevation: 1066 ft
Nearby Weather Stations

Elev 1066 ft 35.85 °N, 97.41 °W | Updated 10 minutes ago

Rain
Rain
62 °F
Feels Like 62 °F
N
4
Wind Variable Wind from South

Today
High -- | Low -- °F
--% Chance of Precip.
Yesterday
High -- | Low -- °F
Precip. -- in
7:43 AM 6:43 PM
Waning Crescent, 0% visible
Pressure 30.10 in
Visibility 10.0 miles
Clouds Few 3900 ft
Mostly Cloudy 7000 ft
Overcast 10000 ft
Dew Point 61 °F
Humidity 96%
Rainfall 0.03 in
Snow Depth Not available.
UV 0 out of 12
Pollen 5.50 out of 12
Air Quality Not available.
Flu Activity No Activity
METAR KGOK 230553Z AUTO 18003KT 10SM -RA FEW039 BKN070 OVC100 17/16 A3011 RMK AO2 RAB11 SLP191 P0003 60025 T01670161 10228 20167 402670144 58002

More Conditions Fewer Conditions

Pressure 30.10 in
Visibility 10.0 miles
Clouds Few 3900 ft
Mostly Cloudy 7000 ft
Overcast 10000 ft
Dew Point 61 °F
Humidity 96%
Rainfall 0.03 in
Snow Depth Not available.
UV 0 out of 12
Pollen 5.50 out of 12
Air Quality Not available.
Flu Activity No Activity
METAR KGOK 230553Z AUTO 18003KT 10SM -RA FEW039 BKN070 OVC100 17/16 A3011 RMK AO2 RAB11 SLP191 P0003 60025 T01670161 10228 20167 402670144 58002

More Conditions Fewer Conditions

10-Day Weather Forecast

Almanac

Astronomy

Oct. 23, 2014 Rise Set
Actual Time 7:43 AM CDT 6:43 PM CDT
Civil Twilight 7:17 AM CDT 7:09 PM CDT
Nautical Twilight 6:47 AM CDT 7:39 PM CDT
Astronomical Twilight 6:17 AM CDT 8:09 PM CDT
Moon 7:25 AM CDT 6:46 PM CDT
Length of Visible Light 11h 52m
Length of Day
11h 00m
Tomorrow will be 2m 5s shorter.
Waning Crescent, 0% of the Moon is Illuminated
Today
Waning Crescent
Oct 23
New
Oct 30
First Quarter
Nov 6
Full
Nov 14
Last Quarter

Today's Extremes

State Highs State Lows

Community

WunderPhotos

Upload Photos

1,764,194 photos uploaded!

Nearby

Snow Depth

Station Depth Elevation
No new snow has been reported.

Earthquake Activity

City Distance Mag. Time & Date
Luther, Oklahoma 20 miles 2.5 10:36 PM CDT
2014-10-22
Crescent, Oklahoma 22 miles 2.7 9:58 PM CDT
2014-10-22
Anthony, Kansas 86 miles 3.3 6:48 PM CDT
2014-10-22
Mooreland, Oklahoma 98 miles 2.8 5:31 PM CDT
2014-10-22
Minimum magnitude displayed is 2.5.

Coastal Water Temperatures

Place Temperature
No Stations Reporting

Nearby Weather Stations